Asan, Guam
Current Conditions -  °F | °C
As of 1:54 AM on Sunday 21 Dec 2014 (Local Time) from PGUM Reporting Station
Clear Clear  
Wind Chill: 28°   Ceiling: Unl
Heat Index: 31°   Visibility: 10mi
Dew Point: 23°   Wind: 14mph
Humidity: 76%   Direction: 70°ENE
Pressure: 29.88"   Gusts: NA
Location:  13.47°N, 144.71°E
Report Text: PGUM 201554Z 07012KT 10SM CLR 28/23 A2988 RMK AO2 SLP111 T02780233
Loading
Personal Weather Stations






























Interactive Weather Map New forecast layout! Learn more

10-Day Weather Forecast

Advertisements
Track Severe Weather on mobile